Trego, Wisconsin
Current Conditions -  °F | °C
As of 3:53 AM on Sunday 25 Jan 2015 (Local Time) from KHYR Reporting Station
Clear Clear  
Wind Chill:   Ceiling: Unl
Heat Index: 15°   Visibility: 10mi
Dew Point:   Wind: 9mph
Humidity: 70%   Direction: 60°ENE
Pressure: 29.88"   Gusts: NA
Location:  45.9°N, 91.82°W
Report Text: KHYR 250953Z AUTO 06008KT 10SM CLR M09/M14 A2988 RMK AO2 SLP138 T10941139
Loading
Personal Weather Stations






























Interactive Weather Map New forecast layout! Learn more

10-Day Weather Forecast

Advertisements
Track Severe Weather on mobile